sensor_id;sensor_type;location;lat;lon;timestamp;P1;durP1;ratioP1;P2;durP2;ratioP2
11000;SDS011;5553;48.506;8.870;2023-03-20T00:01:12;1.50;;;0.97;;
11000;SDS011;5553;48.506;8.870;2023-03-20T00:03:41;1.40;;;1.30;;
11000;SDS011;5553;48.506;8.870;2023-03-20T00:06:12;0.83;;;0.80;;
11000;SDS011;5553;48.506;8.870;2023-03-20T00:08:43;1.27;;;1.27;;
11000;SDS011;5553;48.506;8.870;2023-03-20T00:11:24;2.23;;;1.20;;
11000;SDS011;5553;48.506;8.870;2023-03-20T00:23:32;1.10;;;1.00;;
11000;SDS011;5553;48.506;8.870;2023-03-20T00:26:00;0.93;;;0.93;;
11000;SDS011;5553;48.506;8.870;2023-03-20T00:28:30;2.20;;;1.40;;
11000;SDS011;5553;48.506;8.870;2023-03-20T00:31:09;3.10;;;1.40;;
11000;SDS011;5553;48.506;8.870;2023-03-20T00:33:45;1.80;;;1.20;;
11000;SDS011;5553;48.506;8.870;2023-03-20T00:36:14;1.90;;;1.30;;
11000;SDS011;5553;48.506;8.870;2023-03-20T00:38:44;2.00;;;1.20;;
11000;SDS011;5553;48.506;8.870;2023-03-20T00:41:20;1.27;;;1.17;;
11000;SDS011;5553;48.506;8.870;2023-03-20T00:43:52;1.10;;;1.00;;
11000;SDS011;5553;48.506;8.870;2023-03-20T00:46:23;1.10;;;1.00;;
11000;SDS011;5553;48.506;8.870;2023-03-20T00:48:52;1.17;;;1.07;;
11000;SDS011;5553;48.506;8.870;2023-03-20T00:51:21;2.07;;;1.47;;
11000;SDS011;5553;48.506;8.870;2023-03-20T00:53:52;2.27;;;1.20;;
11000;SDS011;5553;48.506;8.870;2023-03-20T00:56:30;1.33;;;1.13;;
11000;SDS011;5553;48.506;8.870;2023-03-20T00:59:02;1.80;;;1.37;;
11000;SDS011;5553;48.506;8.870;2023-03-20T01:01:31;1.20;;;1.00;;
11000;SDS011;5553;48.506;8.870;2023-03-20T01:04:00;3.00;;;1.20;;
11000;SDS011;5553;48.506;8.870;2023-03-20T01:06:28;3.83;;;1.40;;
11000;SDS011;5553;48.506;8.870;2023-03-20T01:08:59;1.40;;;1.23;;
11000;SDS011;5553;48.506;8.870;2023-03-20T01:11:28;1.80;;;1.20;;
11000;SDS011;5553;48.506;8.870;2023-03-20T01:13:57;1.10;;;0.90;;
11000;SDS011;5553;48.506;8.870;2023-03-20T01:16:26;1.90;;;1.33;;
11000;SDS011;5553;48.506;8.870;2023-03-20T01:18:54;1.90;;;1.50;;
11000;SDS011;5553;48.506;8.870;2023-03-20T01:21:22;3.37;;;2.10;;
11000;SDS011;5553;48.506;8.870;2023-03-20T01:23:51;2.20;;;1.60;;
11000;SDS011;5553;48.506;8.870;2023-03-20T01:26:23;1.67;;;1.40;;
11000;SDS011;5553;48.506;8.870;2023-03-20T01:28:57;1.40;;;1.10;;
11000;SDS011;5553;48.506;8.870;2023-03-20T01:31:25;2.37;;;1.57;;
11000;SDS011;5553;48.506;8.870;2023-03-20T01:33:53;1.57;;;1.43;;
11000;SDS011;5553;48.506;8.870;2023-03-20T01:36:21;2.03;;;1.83;;
11000;SDS011;5553;48.506;8.870;2023-03-20T01:38:53;1.80;;;1.60;;
11000;SDS011;5553;48.506;8.870;2023-03-20T01:41:26;1.73;;;1.60;;
11000;SDS011;5553;48.506;8.870;2023-03-20T01:43:56;1.30;;;1.20;;
11000;SDS011;5553;48.506;8.870;2023-03-20T01:46:29;1.23;;;1.13;;
11000;SDS011;5553;48.506;8.870;2023-03-20T01:51:59;2.60;;;2.00;;
11000;SDS011;5553;48.506;8.870;2023-03-20T01:54:28;2.17;;;1.70;;
11000;SDS011;5553;48.506;8.870;2023-03-20T01:57:03;1.63;;;1.50;;
11000;SDS011;5553;48.506;8.870;2023-03-20T01:59:35;2.93;;;1.53;;
11000;SDS011;5553;48.506;8.870;2023-03-20T02:02:07;1.73;;;1.63;;
11000;SDS011;5553;48.506;8.870;2023-03-20T02:04:37;2.40;;;1.90;;
11000;SDS011;5553;48.506;8.870;2023-03-20T02:07:08;1.37;;;1.27;;
11000;SDS011;5553;48.506;8.870;2023-03-20T02:09:40;3.13;;;1.90;;
11000;SDS011;5553;48.506;8.870;2023-03-20T02:12:11;3.23;;;1.40;;
11000;SDS011;5553;48.506;8.870;2023-03-20T02:14:40;2.10;;;1.60;;
11000;SDS011;5553;48.506;8.870;2023-03-20T02:17:08;1.50;;;1.40;;
11000;SDS011;5553;48.506;8.870;2023-03-20T02:26:04;1.37;;;1.20;;
11000;SDS011;5553;48.506;8.870;2023-03-20T02:31:53;1.70;;;1.20;;
11000;SDS011;5553;48.506;8.870;2023-03-20T02:34:56;1.97;;;1.50;;
11000;SDS011;5553;48.506;8.870;2023-03-20T02:37:56;1.60;;;1.50;;
11000;SDS011;5553;48.506;8.870;2023-03-20T02:40:32;1.73;;;1.20;;
11000;SDS011;5553;48.506;8.870;2023-03-20T02:43:10;1.33;;;1.23;;
11000;SDS011;5553;48.506;8.870;2023-03-20T02:45:47;1.50;;;1.40;;
11000;SDS011;5553;48.506;8.870;2023-03-20T02:48:25;1.97;;;1.60;;
11000;SDS011;5553;48.506;8.870;2023-03-20T02:51:01;1.37;;;1.27;;
11000;SDS011;5553;48.506;8.870;2023-03-20T02:53:39;1.77;;;0.97;;
11000;SDS011;5553;48.506;8.870;2023-03-20T02:56:17;1.73;;;1.33;;
11000;SDS011;5553;48.506;8.870;2023-03-20T02:58:52;1.27;;;0.97;;
11000;SDS011;5553;48.506;8.870;2023-03-20T03:01:29;1.20;;;1.00;;
11000;SDS011;5553;48.506;8.870;2023-03-20T03:04:03;0.80;;;0.70;;
11000;SDS011;5553;48.506;8.870;2023-03-20T03:06:36;0.70;;;0.70;;
11000;SDS011;5553;48.506;8.870;2023-03-20T03:09:10;1.23;;;0.90;;
11000;SDS011;5553;48.506;8.870;2023-03-20T03:11:42;4.50;;;1.00;;
11000;SDS011;5553;48.506;8.870;2023-03-20T03:14:18;0.63;;;0.63;;
11000;SDS011;5553;48.506;8.870;2023-03-20T03:16:56;1.47;;;0.90;;
11000;SDS011;5553;48.506;8.870;2023-03-20T03:19:27;1.20;;;1.10;;
11000;SDS011;5553;48.506;8.870;2023-03-20T03:21:56;1.70;;;0.73;;
11000;SDS011;5553;48.506;8.870;2023-03-20T03:24:31;1.70;;;1.10;;
11000;SDS011;5553;48.506;8.870;2023-03-20T03:27:02;1.57;;;1.07;;
11000;SDS011;5553;48.506;8.870;2023-03-20T03:29:37;0.90;;;0.90;;
11000;SDS011;5553;48.506;8.870;2023-03-20T03:32:18;4.40;;;0.90;;
11000;SDS011;5553;48.506;8.870;2023-03-20T03:34:53;1.90;;;1.00;;
11000;SDS011;5553;48.506;8.870;2023-03-20T03:37:27;0.90;;;0.90;;
11000;SDS011;5553;48.506;8.870;2023-03-20T03:40:10;4.13;;;1.60;;
11000;SDS011;5553;48.506;8.870;2023-03-20T03:42:49;1.30;;;1.20;;
11000;SDS011;5553;48.506;8.870;2023-03-20T03:45:23;2.10;;;1.33;;
11000;SDS011;5553;48.506;8.870;2023-03-20T03:47:59;1.10;;;1.00;;
11000;SDS011;5553;48.506;8.870;2023-03-20T03:50:32;0.90;;;0.90;;
11000;SDS011;5553;48.506;8.870;2023-03-20T03:53:06;1.20;;;1.10;;
11000;SDS011;5553;48.506;8.870;2023-03-20T03:55:42;0.70;;;0.70;;
11000;SDS011;5553;48.506;8.870;2023-03-20T03:58:13;1.10;;;0.90;;
11000;SDS011;5553;48.506;8.870;2023-03-20T04:00:47;1.70;;;1.40;;
11000;SDS011;5553;48.506;8.870;2023-03-20T04:03:20;0.90;;;0.90;;
11000;SDS011;5553;48.506;8.870;2023-03-20T04:05:52;1.20;;;1.10;;
11000;SDS011;5553;48.506;8.870;2023-03-20T04:08:23;1.00;;;1.00;;
11000;SDS011;5553;48.506;8.870;2023-03-20T04:10:54;1.37;;;1.30;;
11000;SDS011;5553;48.506;8.870;2023-03-20T04:13:23;1.07;;;0.97;;
11000;SDS011;5553;48.506;8.870;2023-03-20T04:15:51;1.60;;;1.40;;
11000;SDS011;5553;48.506;8.870;2023-03-20T04:18:19;2.07;;;1.33;;
11000;SDS011;5553;48.506;8.870;2023-03-20T04:20:48;1.03;;;0.97;;
11000;SDS011;5553;48.506;8.870;2023-03-20T04:23:16;2.47;;;1.53;;
11000;SDS011;5553;48.506;8.870;2023-03-20T04:25:44;2.23;;;1.10;;
11000;SDS011;5553;48.506;8.870;2023-03-20T04:28:15;1.17;;;1.07;;
11000;SDS011;5553;48.506;8.870;2023-03-20T04:30:43;1.30;;;1.20;;
11000;SDS011;5553;48.506;8.870;2023-03-20T04:33:18;1.43;;;1.33;;
11000;SDS011;5553;48.506;8.870;2023-03-20T04:35:46;0.83;;;0.83;;
11000;SDS011;5553;48.506;8.870;2023-03-20T04:38:16;4.93;;;1.40;;
11000;SDS011;5553;48.506;8.870;2023-03-20T04:40:45;1.47;;;1.37;;
11000;SDS011;5553;48.506;8.870;2023-03-20T04:43:16;1.40;;;1.30;;
11000;SDS011;5553;48.506;8.870;2023-03-20T04:45:45;1.30;;;1.20;;
11000;SDS011;5553;48.506;8.870;2023-03-20T04:48:13;2.10;;;1.37;;
11000;SDS011;5553;48.506;8.870;2023-03-20T04:50:41;1.70;;;1.50;;
11000;SDS011;5553;48.506;8.870;2023-03-20T04:53:12;1.70;;;1.40;;
11000;SDS011;5553;48.506;8.870;2023-03-20T05:58:58;2.73;;;2.53;;
11000;SDS011;5553;48.506;8.870;2023-03-20T06:01:26;4.80;;;2.50;;
11000;SDS011;5553;48.506;8.870;2023-03-20T06:03:55;4.40;;;3.20;;
11000;SDS011;5553;48.506;8.870;2023-03-20T06:06:23;3.93;;;3.00;;
11000;SDS011;5553;48.506;8.870;2023-03-20T06:08:51;4.57;;;3.10;;
11000;SDS011;5553;48.506;8.870;2023-03-20T06:11:20;4.07;;;3.03;;
11000;SDS011;5553;48.506;8.870;2023-03-20T06:13:48;6.53;;;3.33;;
11000;SDS011;5553;48.506;8.870;2023-03-20T06:16:21;4.27;;;3.20;;
11000;SDS011;5553;48.506;8.870;2023-03-20T06:18:50;4.60;;;2.87;;
11000;SDS011;5553;48.506;8.870;2023-03-20T06:21:19;4.93;;;3.50;;
11000;SDS011;5553;48.506;8.870;2023-03-20T06:23:47;5.30;;;3.37;;
11000;SDS011;5553;48.506;8.870;2023-03-20T06:26:15;4.43;;;3.10;;
11000;SDS011;5553;48.506;8.870;2023-03-20T06:28:44;4.50;;;3.00;;
11000;SDS011;5553;48.506;8.870;2023-03-20T06:31:12;3.97;;;2.53;;
11000;SDS011;5553;48.506;8.870;2023-03-20T06:33:43;3.97;;;3.00;;
11000;SDS011;5553;48.506;8.870;2023-03-20T06:36:12;4.07;;;3.00;;
11000;SDS011;5553;48.506;8.870;2023-03-20T06:38:40;2.60;;;2.00;;
11000;SDS011;5553;48.506;8.870;2023-03-20T06:41:09;3.27;;;2.27;;
11000;SDS011;5553;48.506;8.870;2023-03-20T06:43:37;3.07;;;2.43;;
11000;SDS011;5553;48.506;8.870;2023-03-20T06:46:07;2.70;;;2.30;;
11000;SDS011;5553;48.506;8.870;2023-03-20T06:48:35;2.80;;;2.20;;
11000;SDS011;5553;48.506;8.870;2023-03-20T06:51:07;2.40;;;2.20;;
11000;SDS011;5553;48.506;8.870;2023-03-20T06:53:35;2.93;;;2.40;;
11000;SDS011;5553;48.506;8.870;2023-03-20T06:56:06;2.90;;;2.43;;
11000;SDS011;5553;48.506;8.870;2023-03-20T06:58:35;3.00;;;2.30;;
11000;SDS011;5553;48.506;8.870;2023-03-20T07:01:07;2.10;;;1.90;;
11000;SDS011;5553;48.506;8.870;2023-03-20T07:03:37;2.20;;;1.80;;
11000;SDS011;5553;48.506;8.870;2023-03-20T07:06:08;2.30;;;2.10;;
11000;SDS011;5553;48.506;8.870;2023-03-20T07:08:37;2.53;;;1.90;;
11000;SDS011;5553;48.506;8.870;2023-03-20T07:11:06;4.43;;;2.10;;
11000;SDS011;5553;48.506;8.870;2023-03-20T07:13:35;3.00;;;2.30;;
11000;SDS011;5553;48.506;8.870;2023-03-20T07:16:03;2.30;;;1.67;;
11000;SDS011;5553;48.506;8.870;2023-03-20T07:18:32;2.23;;;2.00;;
11000;SDS011;5553;48.506;8.870;2023-03-20T07:21:01;1.90;;;1.53;;
11000;SDS011;5553;48.506;8.870;2023-03-20T07:23:34;1.93;;;1.83;;
11000;SDS011;5553;48.506;8.870;2023-03-20T07:26:03;2.40;;;1.30;;
11000;SDS011;5553;48.506;8.870;2023-03-20T07:28:32;1.93;;;1.73;;
11000;SDS011;5553;48.506;8.870;2023-03-20T07:31:00;2.90;;;1.60;;
11000;SDS011;5553;48.506;8.870;2023-03-20T07:33:28;2.40;;;1.60;;
11000;SDS011;5553;48.506;8.870;2023-03-20T07:35:56;3.03;;;2.30;;
11000;SDS011;5553;48.506;8.870;2023-03-20T07:38:25;3.23;;;2.10;;
11000;SDS011;5553;48.506;8.870;2023-03-20T07:40:55;3.00;;;1.80;;
11000;SDS011;5553;48.506;8.870;2023-03-20T07:43:24;2.87;;;1.93;;
11000;SDS011;5553;48.506;8.870;2023-03-20T07:45:52;3.50;;;1.87;;
11000;SDS011;5553;48.506;8.870;2023-03-20T07:48:21;4.57;;;2.57;;
11000;SDS011;5553;48.506;8.870;2023-03-20T07:50:49;2.90;;;1.90;;
11000;SDS011;5553;48.506;8.870;2023-03-20T07:53:17;2.03;;;1.83;;
11000;SDS011;5553;48.506;8.870;2023-03-20T07:55:46;2.20;;;1.43;;
11000;SDS011;5553;48.506;8.870;2023-03-20T07:58:16;2.53;;;1.77;;
11000;SDS011;5553;48.506;8.870;2023-03-20T08:00:45;3.50;;;2.00;;
11000;SDS011;5553;48.506;8.870;2023-03-20T08:03:14;2.47;;;1.77;;
11000;SDS011;5553;48.506;8.870;2023-03-20T08:05:42;3.60;;;2.00;;
11000;SDS011;5553;48.506;8.870;2023-03-20T08:08:11;2.50;;;2.00;;
11000;SDS011;5553;48.506;8.870;2023-03-20T08:10:39;3.03;;;1.80;;
11000;SDS011;5553;48.506;8.870;2023-03-20T08:13:07;2.07;;;1.97;;
11000;SDS011;5553;48.506;8.870;2023-03-20T08:15:38;2.00;;;1.90;;
11000;SDS011;5553;48.506;8.870;2023-03-20T08:18:06;2.50;;;2.10;;
11000;SDS011;5553;48.506;8.870;2023-03-20T08:20:34;1.70;;;1.40;;
11000;SDS011;5553;48.506;8.870;2023-03-20T08:23:03;2.43;;;1.60;;
11000;SDS011;5553;48.506;8.870;2023-03-20T08:25:31;2.93;;;1.60;;
11000;SDS011;5553;48.506;8.870;2023-03-20T08:28:00;2.60;;;1.70;;
11000;SDS011;5553;48.506;8.870;2023-03-20T08:30:28;2.17;;;1.73;;
11000;SDS011;5553;48.506;8.870;2023-03-20T08:32:59;1.87;;;1.50;;
11000;SDS011;5553;48.506;8.870;2023-03-20T08:35:27;2.20;;;2.00;;
11000;SDS011;5553;48.506;8.870;2023-03-20T08:37:56;3.17;;;2.60;;
11000;SDS011;5553;48.506;8.870;2023-03-20T08:40:24;3.23;;;2.20;;
11000;SDS011;5553;48.506;8.870;2023-03-20T08:42:52;2.17;;;1.83;;
11000;SDS011;5553;48.506;8.870;2023-03-20T08:45:20;2.90;;;2.00;;
11000;SDS011;5553;48.506;8.870;2023-03-20T08:47:50;1.80;;;1.70;;
11000;SDS011;5553;48.506;8.870;2023-03-20T08:50:21;2.80;;;1.77;;
11000;SDS011;5553;48.506;8.870;2023-03-20T08:52:50;3.47;;;2.13;;
11000;SDS011;5553;48.506;8.870;2023-03-20T08:55:18;3.40;;;2.53;;
11000;SDS011;5553;48.506;8.870;2023-03-20T08:57:46;3.00;;;2.00;;
11000;SDS011;5553;48.506;8.870;2023-03-20T09:03:29;3.77;;;2.53;;
11000;SDS011;5553;48.506;8.870;2023-03-20T09:06:00;2.90;;;1.93;;
11000;SDS011;5553;48.506;8.870;2023-03-20T09:08:28;4.37;;;1.67;;
11000;SDS011;5553;48.506;8.870;2023-03-20T09:10:57;3.30;;;2.00;;
11000;SDS011;5553;48.506;8.870;2023-03-20T09:13:26;2.90;;;1.90;;
11000;SDS011;5553;48.506;8.870;2023-03-20T09:15:54;2.07;;;1.90;;
11000;SDS011;5553;48.506;8.870;2023-03-20T09:18:23;1.63;;;1.50;;
11000;SDS011;5553;48.506;8.870;2023-03-20T09:20:51;2.10;;;1.60;;
11000;SDS011;5553;48.506;8.870;2023-03-20T09:23:23;4.00;;;2.03;;
11000;SDS011;5553;48.506;8.870;2023-03-20T09:25:51;2.60;;;2.00;;
11000;SDS011;5553;48.506;8.870;2023-03-20T09:28:19;1.60;;;1.20;;
11000;SDS011;5553;48.506;8.870;2023-03-20T09:30:48;1.50;;;1.40;;
11000;SDS011;5553;48.506;8.870;2023-03-20T09:33:16;2.77;;;1.70;;
11000;SDS011;5553;48.506;8.870;2023-03-20T09:35:45;1.57;;;1.47;;
11000;SDS011;5553;48.506;8.870;2023-03-20T09:38:13;2.93;;;1.87;;
11000;SDS011;5553;48.506;8.870;2023-03-20T09:40:52;2.97;;;1.67;;
11000;SDS011;5553;48.506;8.870;2023-03-20T09:43:25;2.63;;;1.80;;
11000;SDS011;5553;48.506;8.870;2023-03-20T09:46:18;1.70;;;1.40;;
11000;SDS011;5553;48.506;8.870;2023-03-20T09:48:57;1.90;;;1.20;;
11000;SDS011;5553;48.506;8.870;2023-03-20T09:51:35;2.50;;;1.80;;
11000;SDS011;5553;48.506;8.870;2023-03-20T09:54:09;2.17;;;1.50;;
11000;SDS011;5553;48.506;8.870;2023-03-20T09:56:48;1.33;;;1.13;;
11000;SDS011;5553;48.506;8.870;2023-03-20T09:59:17;1.17;;;1.07;;
11000;SDS011;5553;48.506;8.870;2023-03-20T10:01:48;3.57;;;1.70;;
11000;SDS011;5553;48.506;8.870;2023-03-20T10:04:19;1.97;;;1.67;;
11000;SDS011;5553;48.506;8.870;2023-03-20T10:06:47;2.27;;;1.20;;
11000;SDS011;5553;48.506;8.870;2023-03-20T10:09:16;2.23;;;1.30;;
11000;SDS011;5553;48.506;8.870;2023-03-20T10:12:03;1.70;;;1.33;;
11000;SDS011;5553;48.506;8.870;2023-03-20T10:14:44;2.50;;;2.20;;
11000;SDS011;5553;48.506;8.870;2023-03-20T10:17:23;3.13;;;1.73;;
11000;SDS011;5553;48.506;8.870;2023-03-20T10:20:03;1.60;;;1.47;;
11000;SDS011;5553;48.506;8.870;2023-03-20T10:22:41;1.43;;;1.33;;
11000;SDS011;5553;48.506;8.870;2023-03-20T10:25:25;1.90;;;1.40;;
11000;SDS011;5553;48.506;8.870;2023-03-20T10:28:00;2.80;;;1.50;;
11000;SDS011;5553;48.506;8.870;2023-03-20T10:30:35;1.83;;;1.13;;
11000;SDS011;5553;48.506;8.870;2023-03-20T10:33:18;1.10;;;1.00;;
11000;SDS011;5553;48.506;8.870;2023-03-20T10:36:09;3.20;;;1.30;;
11000;SDS011;5553;48.506;8.870;2023-03-20T10:38:51;1.43;;;1.33;;
11000;SDS011;5553;48.506;8.870;2023-03-20T10:41:27;1.63;;;1.20;;
11000;SDS011;5553;48.506;8.870;2023-03-20T10:44:01;1.97;;;1.60;;
11000;SDS011;5553;48.506;8.870;2023-03-20T10:46:30;4.00;;;1.77;;
11000;SDS011;5553;48.506;8.870;2023-03-20T10:49:02;1.50;;;1.40;;
11000;SDS011;5553;48.506;8.870;2023-03-20T10:51:36;3.10;;;1.30;;
11000;SDS011;5553;48.506;8.870;2023-03-20T10:54:11;1.10;;;0.80;;
11000;SDS011;5553;48.506;8.870;2023-03-20T10:56:49;1.43;;;1.20;;
11000;SDS011;5553;48.506;8.870;2023-03-20T10:59:24;1.90;;;1.53;;
11000;SDS011;5553;48.506;8.870;2023-03-20T11:01:55;2.10;;;1.40;;
11000;SDS011;5553;48.506;8.870;2023-03-20T11:04:23;1.57;;;1.30;;
11000;SDS011;5553;48.506;8.870;2023-03-20T11:06:54;2.53;;;1.00;;
11000;SDS011;5553;48.506;8.870;2023-03-20T11:09:27;1.90;;;1.07;;
11000;SDS011;5553;48.506;8.870;2023-03-20T11:11:57;0.90;;;0.73;;
11000;SDS011;5553;48.506;8.870;2023-03-20T11:14:33;1.40;;;1.07;;
11000;SDS011;5553;48.506;8.870;2023-03-20T11:17:04;1.90;;;1.10;;
11000;SDS011;5553;48.506;8.870;2023-03-20T11:19:34;1.30;;;1.00;;
11000;SDS011;5553;48.506;8.870;2023-03-20T11:22:05;1.83;;;1.00;;
11000;SDS011;5553;48.506;8.870;2023-03-20T11:24:38;4.60;;;1.27;;
11000;SDS011;5553;48.506;8.870;2023-03-20T11:27:09;3.30;;;1.20;;
11000;SDS011;5553;48.506;8.870;2023-03-20T11:29:42;2.10;;;1.40;;
11000;SDS011;5553;48.506;8.870;2023-03-20T11:32:16;2.93;;;1.63;;
11000;SDS011;5553;48.506;8.870;2023-03-20T11:34:54;1.10;;;1.00;;
11000;SDS011;5553;48.506;8.870;2023-03-20T11:37:24;2.00;;;1.30;;
11000;SDS011;5553;48.506;8.870;2023-03-20T11:39:56;2.37;;;1.53;;
11000;SDS011;5553;48.506;8.870;2023-03-20T11:42:27;1.47;;;1.20;;
11000;SDS011;5553;48.506;8.870;2023-03-20T11:45:02;1.60;;;1.30;;
11000;SDS011;5553;48.506;8.870;2023-03-20T11:47:33;1.00;;;0.90;;
11000;SDS011;5553;48.506;8.870;2023-03-20T11:50:03;1.20;;;1.00;;
11000;SDS011;5553;48.506;8.870;2023-03-20T11:52:33;1.13;;;1.03;;
11000;SDS011;5553;48.506;8.870;2023-03-20T11:55:04;1.47;;;1.10;;
11000;SDS011;5553;48.506;8.870;2023-03-20T11:57:46;1.53;;;1.20;;
11000;SDS011;5553;48.506;8.870;2023-03-20T12:00:19;2.10;;;1.30;;
11000;SDS011;5553;48.506;8.870;2023-03-20T12:02:51;1.60;;;1.10;;
11000;SDS011;5553;48.506;8.870;2023-03-20T12:05:27;2.07;;;1.40;;
11000;SDS011;5553;48.506;8.870;2023-03-20T12:07:58;1.20;;;1.10;;
11000;SDS011;5553;48.506;8.870;2023-03-20T12:10:31;0.93;;;0.67;;
11000;SDS011;5553;48.506;8.870;2023-03-20T12:13:04;0.77;;;0.73;;
11000;SDS011;5553;48.506;8.870;2023-03-20T12:15:43;1.27;;;1.07;;
11000;SDS011;5553;48.506;8.870;2023-03-20T12:18:15;1.40;;;1.07;;
11000;SDS011;5553;48.506;8.870;2023-03-20T12:20:53;1.47;;;1.00;;
11000;SDS011;5553;48.506;8.870;2023-03-20T12:23:30;1.63;;;0.80;;
11000;SDS011;5553;48.506;8.870;2023-03-20T12:26:03;1.43;;;1.20;;
11000;SDS011;5553;48.506;8.870;2023-03-20T12:28:35;1.87;;;1.20;;
11000;SDS011;5553;48.506;8.870;2023-03-20T12:31:19;1.43;;;1.33;;
11000;SDS011;5553;48.506;8.870;2023-03-20T12:33:53;1.30;;;1.00;;
11000;SDS011;5553;48.506;8.870;2023-03-20T12:36:28;2.50;;;1.53;;
11000;SDS011;5553;48.506;8.870;2023-03-20T12:39:00;1.63;;;1.10;;
11000;SDS011;5553;48.506;8.870;2023-03-20T12:41:33;4.53;;;1.70;;
11000;SDS011;5553;48.506;8.870;2023-03-20T12:44:13;1.83;;;1.23;;
11000;SDS011;5553;48.506;8.870;2023-03-20T12:46:50;2.77;;;1.90;;
11000;SDS011;5553;48.506;8.870;2023-03-20T12:49:33;2.97;;;1.40;;
11000;SDS011;5553;48.506;8.870;2023-03-20T12:52:13;1.57;;;1.10;;
11000;SDS011;5553;48.506;8.870;2023-03-20T12:54:57;5.07;;;1.60;;
11000;SDS011;5553;48.506;8.870;2023-03-20T12:57:38;4.33;;;1.50;;
11000;SDS011;5553;48.506;8.870;2023-03-20T13:00:17;1.83;;;1.40;;
11000;SDS011;5553;48.506;8.870;2023-03-20T13:02:58;1.90;;;1.47;;
11000;SDS011;5553;48.506;8.870;2023-03-20T13:05:35;2.30;;;1.40;;
11000;SDS011;5553;48.506;8.870;2023-03-20T13:08:25;1.63;;;1.30;;
11000;SDS011;5553;48.506;8.870;2023-03-20T13:11:05;1.20;;;1.10;;
11000;SDS011;5553;48.506;8.870;2023-03-20T13:13:41;1.60;;;1.30;;
11000;SDS011;5553;48.506;8.870;2023-03-20T13:16:17;1.60;;;1.37;;
11000;SDS011;5553;48.506;8.870;2023-03-20T13:18:58;2.30;;;1.30;;
11000;SDS011;5553;48.506;8.870;2023-03-20T13:21:35;1.53;;;1.30;;
11000;SDS011;5553;48.506;8.870;2023-03-20T13:24:14;1.50;;;1.13;;
11000;SDS011;5553;48.506;8.870;2023-03-20T13:26:51;1.10;;;0.80;;
11000;SDS011;5553;48.506;8.870;2023-03-20T13:29:31;1.33;;;1.23;;
11000;SDS011;5553;48.506;8.870;2023-03-20T13:32:10;1.07;;;0.80;;
11000;SDS011;5553;48.506;8.870;2023-03-20T13:34:56;1.07;;;0.97;;
11000;SDS011;5553;48.506;8.870;2023-03-20T13:37:36;1.57;;;0.93;;
11000;SDS011;5553;48.506;8.870;2023-03-20T13:40:12;2.00;;;1.47;;
11000;SDS011;5553;48.506;8.870;2023-03-20T13:42:48;2.10;;;1.17;;
11000;SDS011;5553;48.506;8.870;2023-03-20T13:45:27;5.37;;;1.27;;
11000;SDS011;5553;48.506;8.870;2023-03-20T13:47:59;1.73;;;0.80;;
11000;SDS011;5553;48.506;8.870;2023-03-20T13:50:37;1.03;;;0.93;;
11000;SDS011;5553;48.506;8.870;2023-03-20T13:53:15;1.70;;;1.10;;
11000;SDS011;5553;48.506;8.870;2023-03-20T13:55:53;1.80;;;1.20;;
11000;SDS011;5553;48.506;8.870;2023-03-20T13:58:44;1.43;;;0.90;;
11000;SDS011;5553;48.506;8.870;2023-03-20T14:01:27;1.80;;;0.87;;
11000;SDS011;5553;48.506;8.870;2023-03-20T14:04:06;1.47;;;1.10;;
11000;SDS011;5553;48.506;8.870;2023-03-20T14:06:47;3.37;;;1.20;;
11000;SDS011;5553;48.506;8.870;2023-03-20T14:09:24;1.53;;;1.30;;
11000;SDS011;5553;48.506;8.870;2023-03-20T14:11:54;1.90;;;1.40;;
11000;SDS011;5553;48.506;8.870;2023-03-20T14:14:26;1.90;;;1.07;;
11000;SDS011;5553;48.506;8.870;2023-03-20T14:17:00;1.20;;;1.10;;
11000;SDS011;5553;48.506;8.870;2023-03-20T14:19:33;1.00;;;0.73;;
11000;SDS011;5553;48.506;8.870;2023-03-20T14:22:05;1.10;;;1.00;;
11000;SDS011;5553;48.506;8.870;2023-03-20T14:24:44;1.33;;;1.00;;
11000;SDS011;5553;48.506;8.870;2023-03-20T14:27:23;3.93;;;1.13;;
11000;SDS011;5553;48.506;8.870;2023-03-20T14:29:53;1.23;;;1.10;;
11000;SDS011;5553;48.506;8.870;2023-03-20T14:32:32;1.27;;;1.17;;
11000;SDS011;5553;48.506;8.870;2023-03-20T14:35:20;1.13;;;1.10;;
11000;SDS011;5553;48.506;8.870;2023-03-20T14:38:01;0.80;;;0.80;;
11000;SDS011;5553;48.506;8.870;2023-03-20T14:40:37;2.50;;;1.40;;
11000;SDS011;5553;48.506;8.870;2023-03-20T14:43:13;2.10;;;1.30;;
11000;SDS011;5553;48.506;8.870;2023-03-20T14:45:46;1.57;;;1.10;;
11000;SDS011;5553;48.506;8.870;2023-03-20T14:48:25;1.43;;;1.30;;
11000;SDS011;5553;48.506;8.870;2023-03-20T14:51:12;1.70;;;1.20;;
11000;SDS011;5553;48.506;8.870;2023-03-20T14:53:52;1.50;;;0.73;;
11000;SDS011;5553;48.506;8.870;2023-03-20T14:56:30;1.43;;;1.10;;
11000;SDS011;5553;48.506;8.870;2023-03-20T14:59:03;1.77;;;1.50;;
11000;SDS011;5553;48.506;8.870;2023-03-20T15:01:43;1.73;;;1.10;;
11000;SDS011;5553;48.506;8.870;2023-03-20T15:04:19;1.90;;;1.30;;
11000;SDS011;5553;48.506;8.870;2023-03-20T15:06:56;1.70;;;1.10;;
11000;SDS011;5553;48.506;8.870;2023-03-20T15:09:29;2.27;;;1.33;;
11000;SDS011;5553;48.506;8.870;2023-03-20T15:12:00;2.53;;;1.47;;
11000;SDS011;5553;48.506;8.870;2023-03-20T15:14:32;1.57;;;1.27;;
11000;SDS011;5553;48.506;8.870;2023-03-20T15:17:05;0.97;;;0.83;;
11000;SDS011;5553;48.506;8.870;2023-03-20T15:19:43;2.50;;;1.50;;
11000;SDS011;5553;48.506;8.870;2023-03-20T15:22:13;2.50;;;1.20;;
11000;SDS011;5553;48.506;8.870;2023-03-20T15:24:53;2.10;;;1.10;;
11000;SDS011;5553;48.506;8.870;2023-03-20T15:27:24;1.50;;;1.20;;
11000;SDS011;5553;48.506;8.870;2023-03-20T15:29:54;1.63;;;1.53;;
11000;SDS011;5553;48.506;8.870;2023-03-20T15:32:24;1.50;;;1.40;;
11000;SDS011;5553;48.506;8.870;2023-03-20T15:34:52;3.77;;;1.70;;
11000;SDS011;5553;48.506;8.870;2023-03-20T15:37:21;1.20;;;1.10;;
11000;SDS011;5553;48.506;8.870;2023-03-20T15:39:53;2.50;;;2.03;;
11000;SDS011;5553;48.506;8.870;2023-03-20T15:42:24;1.40;;;1.30;;
11000;SDS011;5553;48.506;8.870;2023-03-20T15:44:53;1.50;;;1.23;;
11000;SDS011;5553;48.506;8.870;2023-03-20T15:47:23;1.50;;;1.30;;
11000;SDS011;5553;48.506;8.870;2023-03-20T15:49:54;4.30;;;1.30;;
11000;SDS011;5553;48.506;8.870;2023-03-20T15:52:25;1.87;;;1.30;;
11000;SDS011;5553;48.506;8.870;2023-03-20T15:55:02;1.53;;;1.27;;
11000;SDS011;5553;48.506;8.870;2023-03-20T15:57:34;1.43;;;1.33;;
11000;SDS011;5553;48.506;8.870;2023-03-20T16:00:05;1.33;;;0.90;;
11000;SDS011;5553;48.506;8.870;2023-03-20T16:02:36;1.00;;;0.80;;
11000;SDS011;5553;48.506;8.870;2023-03-20T16:05:07;1.20;;;1.07;;
11000;SDS011;5553;48.506;8.870;2023-03-20T16:07:39;1.30;;;1.20;;
11000;SDS011;5553;48.506;8.870;2023-03-20T16:10:18;3.00;;;1.60;;
11000;SDS011;5553;48.506;8.870;2023-03-20T16:12:48;1.57;;;0.93;;
11000;SDS011;5553;48.506;8.870;2023-03-20T16:15:19;2.20;;;1.17;;
11000;SDS011;5553;48.506;8.870;2023-03-20T16:17:49;1.10;;;0.80;;
11000;SDS011;5553;48.506;8.870;2023-03-20T16:20:20;1.30;;;1.20;;
11000;SDS011;5553;48.506;8.870;2023-03-20T16:22:51;2.63;;;1.80;;
11000;SDS011;5553;48.506;8.870;2023-03-20T16:25:26;2.30;;;1.43;;
11000;SDS011;5553;48.506;8.870;2023-03-20T16:27:54;1.30;;;1.10;;
11000;SDS011;5553;48.506;8.870;2023-03-20T16:30:24;2.03;;;1.30;;
11000;SDS011;5553;48.506;8.870;2023-03-20T16:32:55;1.70;;;1.03;;
11000;SDS011;5553;48.506;8.870;2023-03-20T16:35:28;1.93;;;1.53;;
11000;SDS011;5553;48.506;8.870;2023-03-20T16:38:01;1.77;;;1.10;;
11000;SDS011;5553;48.506;8.870;2023-03-20T16:40:43;2.13;;;1.37;;
11000;SDS011;5553;48.506;8.870;2023-03-20T16:43:12;1.60;;;1.50;;
11000;SDS011;5553;48.506;8.870;2023-03-20T16:45:43;2.10;;;1.47;;
11000;SDS011;5553;48.506;8.870;2023-03-20T16:48:19;2.37;;;0.90;;
11000;SDS011;5553;48.506;8.870;2023-03-20T16:50:56;1.53;;;0.93;;
11000;SDS011;5553;48.506;8.870;2023-03-20T16:53:26;1.07;;;0.93;;
11000;SDS011;5553;48.506;8.870;2023-03-20T16:55:59;1.30;;;1.10;;
11000;SDS011;5553;48.506;8.870;2023-03-20T16:58:30;1.07;;;0.63;;
11000;SDS011;5553;48.506;8.870;2023-03-20T17:01:04;1.40;;;1.17;;
11000;SDS011;5553;48.506;8.870;2023-03-20T17:03:35;1.73;;;1.40;;